Time,TemperatureF,DewpointF,PressureIn,WindDirection,WindDirectionDegrees,WindSpeedMPH,WindSpeedGustMPH,Humidity,HourlyPrecipIn,Conditions,Clouds,dailyrainin,SoftwareType,DateUTC
2013-07-14 00:00:00,69.1,55.5,17.72,SW,217,0.0,0.0,62,0.00,,---,0.00,VWS V13.01,2013-07-14 07:00:00,
2013-07-14 00:20:00,68.9,56.7,17.72,SW,217,0.0,0.0,65,0.00,,---,0.00,VWS V13.01,2013-07-14 07:20:00,
2013-07-14 00:40:00,69.3,55.7,17.72,SW,217,0.0,0.0,62,0.00,,---,0.00,VWS V13.01,2013-07-14 07:40:00,
2013-07-14 01:00:00,69.4,50.0,17.72,SW,217,0.0,0.0,50,0.00,,---,0.00,VWS V13.01,2013-07-14 08:00:00,
2013-07-14 01:20:00,70.2,47.2,17.72,SW,217,0.0,0.0,44,0.00,,---,0.00,VWS V13.01,2013-07-14 08:20:00,
2013-07-14 01:40:00,70.2,47.2,17.72,SW,217,0.0,0.0,44,0.00,,---,0.00,VWS V13.01,2013-07-14 08:40:00,
2013-07-14 02:00:00,69.8,49.2,17.72,SW,217,0.0,0.0,48,0.00,,---,0.00,VWS V13.01,2013-07-14 09:00:00,
2013-07-14 02:20:00,69.4,52.6,17.72,SW,217,0.0,0.0,55,0.00,,---,0.00,VWS V13.01,2013-07-14 09:20:00,
2013-07-14 02:40:00,68.9,54.0,17.72,NNE,13,0.0,3.6,59,0.00,,---,0.00,VWS V13.01,2013-07-14 09:40:00,
2013-07-14 03:00:00,68.5,55.5,17.72,NNE,13,0.0,0.0,63,0.00,,---,0.00,VWS V13.01,2013-07-14 10:00:00,
2013-07-14 03:20:00,68.4,56.2,17.72,SW,231,0.0,0.0,65,0.00,,---,0.00,VWS V13.01,2013-07-14 10:20:00,
2013-07-14 03:40:00,68.2,56.4,17.72,SW,231,0.0,0.0,66,0.00,,---,0.00,VWS V13.01,2013-07-14 10:40:00,
2013-07-14 04:00:00,68.4,57.0,17.72,SE,141,4.0,6.3,67,0.00,,---,0.00,VWS V13.01,2013-07-14 11:00:00,
2013-07-14 04:20:00,68.9,57.5,17.72,SE,142,0.0,4.9,67,0.00,,---,0.00,VWS V13.01,2013-07-14 11:20:00,
2013-07-14 04:40:00,68.7,59.0,17.72,SE,125,0.0,4.9,71,0.00,,---,0.00,VWS V13.01,2013-07-14 11:40:00,
2013-07-14 05:00:00,68.9,56.2,17.72,SSE,152,0.0,6.3,64,0.00,,---,0.00,VWS V13.01,2013-07-14 12:00:00,
2013-07-14 05:20:00,69.4,55.4,17.72,South,173,0.0,2.7,61,0.00,,---,0.00,VWS V13.01,2013-07-14 12:20:00,
2013-07-14 05:40:00,69.3,55.2,17.72,SW,216,0.0,5.8,61,0.00,,---,0.00,VWS V13.01,2013-07-14 12:40:00,
2013-07-14 06:00:00,69.3,55.2,17.72,South,187,0.0,0.0,61,0.00,,---,0.00,VWS V13.01,2013-07-14 13:00:00,
2013-07-14 06:20:00,69.3,55.7,17.72,SSW,212,3.1,4.0,62,0.00,,---,0.00,VWS V13.01,2013-07-14 13:20:00,
2013-07-14 06:40:00,69.1,52.2,17.72,South,183,5.8,5.8,55,0.00,,---,0.00,VWS V13.01,2013-07-14 13:40:00,
2013-07-14 07:00:00,69.3,50.4,17.72,SW,226,0.0,5.8,51,0.00,,---,0.00,VWS V13.01,2013-07-14 14:00:00,
2013-07-14 07:20:00,70.3,52.4,17.72,NNW,344,4.0,4.0,53,0.00,,---,0.00,VWS V13.01,2013-07-14 14:20:00,
2013-07-14 07:40:00,71.8,51.6,17.72,North,0,3.1,4.0,49,0.00,,---,0.00,VWS V13.01,2013-07-14 14:40:00,
2013-07-14 08:00:00,72.7,53.0,17.72,NNE,18,0.0,4.9,50,0.00,,---,0.00,VWS V13.01,2013-07-14 15:00:00,
2013-07-14 08:20:00,74.8,52.7,17.72,North,0,4.0,5.8,46,0.00,,---,0.00,VWS V13.01,2013-07-14 15:20:00,
2013-07-14 08:40:00,75.7,52.3,17.72,NNE,20,4.0,5.8,44,0.00,,---,0.00,VWS V13.01,2013-07-14 15:40:00,
2013-07-14 09:00:00,77.0,50.9,17.72,NE,45,0.0,6.3,40,0.00,,---,0.00,VWS V13.01,2013-07-14 16:00:00,
2013-07-14 09:20:00,78.3,47.6,17.72,NE,42,2.7,5.4,34,0.00,,---,0.00,VWS V13.01,2013-07-14 16:20:00,
2013-07-14 09:40:00,79.7,46.4,17.72,NNE,32,2.7,4.0,31,0.00,,---,0.00,VWS V13.01,2013-07-14 16:40:00,
2013-07-14 10:00:00,79.9,45.7,17.72,NE,48,3.1,6.3,30,0.00,,---,0.00,VWS V13.01,2013-07-14 17:00:00,
2013-07-14 10:20:00,81.5,45.3,17.72,NNE,23,7.6,7.6,28,0.00,,---,0.00,VWS V13.01,2013-07-14 17:20:00,
2013-07-14 10:40:00,82.0,43.8,17.72,North,353,5.4,8.7,26,0.00,,---,0.00,VWS V13.01,2013-07-14 17:40:00,
2013-07-14 11:00:00,83.1,43.7,17.72,NNE,31,5.4,11.0,25,0.00,,---,0.00,VWS V13.01,2013-07-14 18:00:00,
2013-07-14 11:20:00,83.3,43.8,17.72,North,357,4.5,8.3,25,0.00,,---,0.00,VWS V13.01,2013-07-14 18:20:00,
2013-07-14 11:40:00,84.7,42.9,17.72,NW,312,5.4,8.7,23,0.00,,---,0.00,VWS V13.01,2013-07-14 18:40:00,
2013-07-14 12:00:00,86.0,41.6,17.72,NE,39,3.6,10.5,21,0.00,,---,0.00,VWS V13.01,2013-07-14 19:00:00,
2013-07-14 12:20:00,87.1,43.7,17.72,NNE,33,5.8,8.3,22,0.00,,---,0.00,VWS V13.01,2013-07-14 19:20:00,
2013-07-14 12:40:00,88.3,42.2,17.72,North,8,2.7,8.7,20,0.00,,---,0.00,VWS V13.01,2013-07-14 19:40:00,
2013-07-14 13:00:00,90.0,42.2,17.72,NNE,13,3.1,6.7,19,0.00,,---,0.00,VWS V13.01,2013-07-14 20:00:00,
2013-07-14 13:20:00,89.8,40.7,17.72,SW,230,3.1,8.7,18,0.00,,---,0.00,VWS V13.01,2013-07-14 20:20:00,
2013-07-14 13:40:00,91.6,40.7,17.72,NNE,19,3.6,5.8,17,0.00,,---,0.00,VWS V13.01,2013-07-14 20:40:00,
2013-07-14 14:00:00,93.4,42.1,17.72,West,274,0.0,5.4,17,0.00,,---,0.00,VWS V13.01,2013-07-14 21:00:00,
2013-07-14 14:20:00,93.6,42.2,17.72,North,8,6.3,8.3,17,0.00,,---,0.00,VWS V13.01,2013-07-14 21:20:00,
2013-07-14 14:40:00,93.9,42.5,17.72,NNE,21,3.1,8.1,17,0.00,,---,0.00,VWS V13.01,2013-07-14 21:40:00,
2013-07-14 15:00:00,92.7,41.5,17.72,WNW,287,7.6,8.1,17,0.00,,---,0.00,VWS V13.01,2013-07-14 22:00:00,
2013-07-14 15:20:00,91.4,40.5,17.72,WNW,294,3.1,10.1,17,0.00,,---,0.00,VWS V13.01,2013-07-14 22:20:00,
2013-07-14 15:40:00,88.9,39.9,17.72,WNW,295,5.8,10.1,18,0.00,,---,0.00,VWS V13.01,2013-07-14 22:40:00,
2013-07-14 16:00:00,86.0,39.0,17.72,WSW,240,7.2,14.5,19,0.00,,---,0.00,VWS V13.01,2013-07-14 23:00:00,
2013-07-14 16:20:00,84.7,40.5,17.72,SW,226,7.6,12.8,21,0.00,,---,0.00,VWS V13.01,2013-07-14 23:20:00,
2013-07-14 16:40:00,84.7,41.7,17.72,SW,224,5.8,11.0,22,0.00,,---,0.00,VWS V13.01,2013-07-14 23:40:00,
2013-07-14 17:00:00,86.2,41.7,17.72,SW,230,4.9,10.5,21,0.00,,---,0.00,VWS V13.01,2013-07-15 00:00:00,
2013-07-14 17:20:00,85.5,43.5,17.72,WSW,238,5.4,12.8,23,0.00,,---,0.00,VWS V13.01,2013-07-15 00:20:00,
2013-07-14 17:40:00,83.8,41.0,17.72,SW,226,6.3,11.0,22,0.00,,---,0.00,VWS V13.01,2013-07-15 00:40:00,
2013-07-14 18:00:00,83.1,40.4,17.72,SW,236,5.4,10.5,22,0.00,,---,0.00,VWS V13.01,2013-07-15 01:00:00,
2013-07-14 18:20:00,82.6,41.1,17.72,WSW,250,6.3,8.7,23,0.00,,---,0.00,VWS V13.01,2013-07-15 01:20:00,
2013-07-14 18:40:00,82.2,40.8,17.72,SW,223,3.1,9.6,23,0.00,,---,0.00,VWS V13.01,2013-07-15 01:40:00,
2013-07-14 19:00:00,81.9,41.6,17.72,SW,220,3.6,10.5,24,0.00,,---,0.00,VWS V13.01,2013-07-15 02:00:00,
2013-07-14 19:20:00,81.3,41.1,17.72,SW,222,3.1,8.7,24,0.00,,---,0.00,VWS V13.01,2013-07-15 02:20:00,
2013-07-14 19:40:00,81.1,41.0,17.72,SW,217,4.9,9.2,24,0.00,,---,0.00,VWS V13.01,2013-07-15 02:40:00,
2013-07-14 20:00:00,80.8,41.7,17.72,SW,226,4.9,7.2,25,0.00,,---,0.00,VWS V13.01,2013-07-15 03:00:00,
2013-07-14 20:20:00,80.4,41.4,17.72,SW,223,2.7,7.6,25,0.00,,---,0.00,VWS V13.01,2013-07-15 03:20:00,
2013-07-14 20:40:00,80.1,41.1,17.72,SW,236,4.0,6.3,25,0.00,,---,0.00,VWS V13.01,2013-07-15 03:40:00,
2013-07-14 21:00:00,79.9,41.0,17.72,SSW,202,3.6,6.3,25,0.00,,---,0.00,VWS V13.01,2013-07-15 04:00:00,
2013-07-14 21:20:00,79.7,41.8,17.72,West,271,4.9,6.3,26,0.00,,---,0.00,VWS V13.01,2013-07-15 04:20:00,
2013-07-14 21:40:00,79.7,41.8,17.72,WSW,240,5.8,8.1,26,0.00,,---,0.00,VWS V13.01,2013-07-15 04:40:00,
2013-07-14 22:00:00,79.7,41.8,17.72,NW,312,3.6,6.3,26,0.00,,---,0.00,VWS V13.01,2013-07-15 05:00:00,
2013-07-14 22:20:00,79.3,41.5,17.72,NW,313,7.6,8.3,26,0.00,,---,0.00,VWS V13.01,2013-07-15 05:20:00,
2013-07-14 22:40:00,79.3,41.5,17.72,West,275,6.7,8.7,26,0.00,,---,0.00,VWS V13.01,2013-07-15 05:40:00,
2013-07-14 23:00:00,79.2,42.3,17.72,West,273,5.4,8.3,27,0.00,,---,0.00,VWS V13.01,2013-07-15 06:00:00,
2013-07-14 23:20:00,79.0,42.2,17.72,WSW,256,5.4,8.3,27,0.00,,---,0.00,VWS V13.01,2013-07-15 06:20:00,
2013-07-14 23:40:00,78.8,42.0,17.72,West,260,3.1,10.5,27,0.00,,---,0.00,VWS V13.01,2013-07-15 06:40:00,